Time;durP1;ratioP1;P1;durP2;ratioP2;P2;SDS_P1;SDS_P2;PMS_P1;PMS_P2;Temp;Humidity;BMP_temperature;BMP_pressure;BME280_temperature;BME280_humidity;BME280_pressure;Samples;Min_cycle;Max_cycle;Signal;HPM_P1;HPM_P2
2022/12/07 00:00:56;;;;;;;;;73.00;52.33;;;;;;;;5085386;28;8849;-81
2022/12/07 00:03:24;;;;;;;;;68.33;54.33;;;;;;;;5086517;28;8853;-80
2022/12/07 00:05:52;;;;;;;;;54.67;44.67;;;;;;;;5087274;28;8879;-81
2022/12/07 00:08:19;;;;;;;;;47.00;40.00;;;;;;;;5081913;28;8842;-81
2022/12/07 00:10:47;;;;;;;;;54.67;45.67;;;;;;;;5086142;28;8825;-80
2022/12/07 00:13:15;;;;;;;;;69.00;54.67;;;;;;;;5085421;28;9073;-81
2022/12/07 00:15:43;;;;;;;;;60.00;51.00;;;;;;;;5082766;28;8862;-81
2022/12/07 00:18:12;;;;;;;;;75.33;55.33;;;;;;;;5081199;28;8847;-81
2022/12/07 00:20:39;;;;;;;;;66.33;54.33;;;;;;;;5086822;28;8861;-81
2022/12/07 00:23:07;;;;;;;;;63.33;47.33;;;;;;;;5086686;28;8844;-80
2022/12/07 00:25:34;;;;;;;;;68.33;56.00;;;;;;;;5087768;28;8848;-80
2022/12/07 00:28:01;;;;;;;;;65.67;54.33;;;;;;;;5082463;28;8800;-80
2022/12/07 00:30:29;;;;;;;;;66.67;54.00;;;;;;;;5087401;28;8932;-81
2022/12/07 00:32:56;;;;;;;;;63.67;51.67;;;;;;;;5085340;28;8871;-81
2022/12/07 00:35:26;;;;;;;;;72.67;57.00;;;;;;;;5087662;28;8858;-81
2022/12/07 00:37:53;;;;;;;;;66.00;52.00;;;;;;;;5084586;28;8841;-80
2022/12/07 00:40:21;;;;;;;;;75.00;58.67;;;;;;;;5085751;28;8882;-81
2022/12/07 00:42:49;;;;;;;;;58.67;48.67;;;;;;;;5078275;28;8828;-81
2022/12/07 00:45:17;;;;;;;;;52.67;43.00;;;;;;;;5084552;28;8970;-80
2022/12/07 00:47:45;;;;;;;;;56.00;46.00;;;;;;;;5085885;28;8818;-81
2022/12/07 00:50:12;;;;;;;;;62.00;49.33;;;;;;;;5087149;28;8884;-81
2022/12/07 00:52:41;;;;;;;;;49.00;45.00;;;;;;;;5080019;28;9039;-81
2022/12/07 00:55:10;;;;;;;;;49.00;42.67;;;;;;;;5076404;28;8840;-80
2022/12/07 00:57:38;;;;;;;;;36.67;34.00;;;;;;;;5084767;28;8848;-81
2022/12/07 01:00:07;;;;;;;;;45.00;39.67;;;;;;;;5084360;28;8929;-81
2022/12/07 01:02:36;;;;;;;;;37.33;32.67;;;;;;;;5081523;28;8846;-81
2022/12/07 01:05:03;;;;;;;;;37.67;36.67;;;;;;;;5082343;28;8878;-80
2022/12/07 01:07:30;;;;;;;;;44.33;39.00;;;;;;;;5063943;28;8974;-80
2022/12/07 01:10:00;;;;;;;;;40.67;36.67;;;;;;;;5084652;28;9589;-81
2022/12/07 01:12:27;;;;;;;;;39.00;37.00;;;;;;;;5081954;28;8848;-81
2022/12/07 01:14:54;;;;;;;;;40.67;40.67;;;;;;;;5084732;28;8856;-80
2022/12/07 01:17:22;;;;;;;;;40.67;39.00;;;;;;;;5094654;28;8966;-81
2022/12/07 01:19:50;;;;;;;;;30.67;28.00;;;;;;;;5085887;28;8836;-82
2022/12/07 01:22:18;;;;;;;;;31.00;28.00;;;;;;;;5080971;28;9651;-82
2022/12/07 01:24:46;;;;;;;;;33.67;31.67;;;;;;;;5077818;28;8850;-82
2022/12/07 01:27:16;;;;;;;;;48.33;37.67;;;;;;;;5079078;28;8855;-82
2022/12/07 01:29:44;;;;;;;;;39.33;39.33;;;;;;;;5082920;28;8828;-82
2022/12/07 01:32:13;;;;;;;;;29.67;26.00;;;;;;;;5081441;28;8890;-82
2022/12/07 01:34:40;;;;;;;;;39.00;36.67;;;;;;;;5082364;28;8862;-82
2022/12/07 01:37:08;;;;;;;;;36.33;34.67;;;;;;;;5083301;28;8813;-81
2022/12/07 01:39:35;;;;;;;;;38.67;35.00;;;;;;;;5083280;28;8844;-82
2022/12/07 01:42:05;;;;;;;;;35.00;31.67;;;;;;;;5084519;28;8932;-82
2022/12/07 01:44:49;;;;;;;;;40.33;33.33;;;;;;;;5084595;28;8855;-82
2022/12/07 01:47:16;;;;;;;;;59.00;45.33;;;;;;;;5082858;28;8845;-82
2022/12/07 01:49:47;;;;;;;;;54.33;45.00;;;;;;;;5060754;28;8858;-83
2022/12/07 01:52:18;;;;;;;;;49.00;40.33;;;;;;;;5079261;28;8887;-82
2022/12/07 01:54:47;;;;;;;;;62.67;45.33;;;;;;;;5081457;28;8855;-83
2022/12/07 01:57:16;;;;;;;;;56.00;50.33;;;;;;;;5078490;28;8842;-82
2022/12/07 01:59:46;;;;;;;;;39.00;35.67;;;;;;;;5077863;28;8984;-82
2022/12/07 02:02:20;;;;;;;;;55.33;46.00;;;;;;;;5084125;28;8880;-82
2022/12/07 02:04:48;;;;;;;;;53.00;49.00;;;;;;;;5083457;28;9613;-82
2022/12/07 02:07:15;;;;;;;;;50.33;46.33;;;;;;;;5084009;28;8868;-82
2022/12/07 02:09:43;;;;;;;;;46.00;43.33;;;;;;;;5080415;28;8840;-83
2022/12/07 02:12:10;;;;;;;;;52.67;45.67;;;;;;;;5084272;28;8836;-83
2022/12/07 02:14:38;;;;;;;;;35.67;35.67;;;;;;;;5084402;28;8859;-82
2022/12/07 02:17:13;;;;;;;;;46.00;43.67;;;;;;;;5082106;28;8855;-82
2022/12/07 02:20:07;;;;;;;;;40.00;40.00;;;;;;;;5084861;28;8832;-82
2022/12/07 02:23:07;;;;;;;;;49.33;44.00;;;;;;;;5085482;28;8840;-82
2022/12/07 02:25:52;;;;;;;;;39.67;39.67;;;;;;;;5084974;28;8854;-82
2022/12/07 02:28:26;;;;;;;;;48.00;44.00;;;;;;;;5081797;28;8990;-82
2022/12/07 02:30:56;;;;;;;;;55.33;46.00;;;;;;;;5077286;28;8854;-81
2022/12/07 02:33:27;;;;;;;;;59.00;45.00;;;;;;;;5084689;28;8958;-82
2022/12/07 02:35:59;;;;;;;;;55.67;46.33;;;;;;;;5083925;28;8880;-82
2022/12/07 02:38:32;;;;;;;;;54.67;45.33;;;;;;;;5084169;28;8845;-82
2022/12/07 02:41:03;;;;;;;;;49.00;41.33;;;;;;;;5083149;28;8811;-82
2022/12/07 02:43:35;;;;;;;;;44.67;41.67;;;;;;;;5081863;28;8837;-82
2022/12/07 02:46:07;;;;;;;;;60.67;48.67;;;;;;;;5087408;28;8856;-82
2022/12/07 02:48:35;;;;;;;;;48.33;42.00;;;;;;;;5086306;28;8898;-83
2022/12/07 02:51:03;;;;;;;;;45.67;42.00;;;;;;;;5083499;28;8850;-83
2022/12/07 02:53:32;;;;;;;;;47.67;42.67;;;;;;;;5087013;28;8878;-83
2022/12/07 02:56:00;;;;;;;;;51.67;42.33;;;;;;;;5087980;28;8903;-82
2022/12/07 02:58:37;;;;;;;;;36.67;32.33;;;;;;;;5087618;28;8878;-82
2022/12/07 03:01:16;;;;;;;;;44.67;40.67;;;;;;;;5086539;28;8887;-81
2022/12/07 03:03:49;;;;;;;;;50.67;44.67;;;;;;;;5087847;28;8840;-83
2022/12/07 03:06:21;;;;;;;;;45.33;42.00;;;;;;;;5085842;28;8886;-80
2022/12/07 03:08:56;;;;;;;;;42.33;39.00;;;;;;;;5082516;28;8962;-81
2022/12/07 03:11:28;;;;;;;;;43.67;41.67;;;;;;;;5087440;28;8913;-81
2022/12/07 03:14:03;;;;;;;;;47.67;43.33;;;;;;;;5086040;28;8860;-81
2022/12/07 03:16:36;;;;;;;;;46.67;44.67;;;;;;;;5081910;28;8847;-82
2022/12/07 03:19:09;;;;;;;;;50.00;44.67;;;;;;;;5081666;28;8862;-82
2022/12/07 03:21:39;;;;;;;;;52.00;46.33;;;;;;;;5083344;28;8836;-82
2022/12/07 03:24:10;;;;;;;;;49.33;42.67;;;;;;;;5088548;28;8866;-83
2022/12/07 03:26:41;;;;;;;;;47.67;42.33;;;;;;;;5078118;28;8863;-82
2022/12/07 03:29:12;;;;;;;;;53.67;44.67;;;;;;;;5087080;28;8817;-81
2022/12/07 03:31:46;;;;;;;;;56.33;45.00;;;;;;;;5087602;28;8914;-82
2022/12/07 03:34:19;;;;;;;;;32.00;29.00;;;;;;;;5085089;28;8844;-82
2022/12/07 03:36:50;;;;;;;;;53.33;46.33;;;;;;;;5087033;28;8844;-82
2022/12/07 03:39:25;;;;;;;;;44.67;42.67;;;;;;;;5089176;28;8862;-81
2022/12/07 03:41:53;;;;;;;;;49.33;41.00;;;;;;;;5084562;28;8858;-81
2022/12/07 03:44:22;;;;;;;;;57.67;46.00;;;;;;;;5085899;28;8844;-81
2022/12/07 03:46:58;;;;;;;;;45.00;43.33;;;;;;;;5085894;28;8844;-81
2022/12/07 03:49:28;;;;;;;;;52.00;44.33;;;;;;;;5081307;28;8840;-80
2022/12/07 03:52:00;;;;;;;;;41.00;39.33;;;;;;;;5076097;28;8882;-80
2022/12/07 03:54:32;;;;;;;;;59.00;49.33;;;;;;;;5085797;28;8840;-81
2022/12/07 03:57:00;;;;;;;;;43.67;42.67;;;;;;;;5079185;28;8848;-81
2022/12/07 03:59:28;;;;;;;;;45.33;41.33;;;;;;;;5086914;28;8826;-81
2022/12/07 04:02:03;;;;;;;;;36.33;34.67;;;;;;;;5086672;28;8832;-80
2022/12/07 04:04:31;;;;;;;;;54.33;46.33;;;;;;;;5084187;28;8848;-81
2022/12/07 04:06:59;;;;;;;;;45.00;41.33;;;;;;;;5084078;28;8817;-80
2022/12/07 04:09:27;;;;;;;;;47.00;41.00;;;;;;;;5084438;28;9636;-80
2022/12/07 04:11:54;;;;;;;;;39.33;39.33;;;;;;;;5082566;28;8852;-80
2022/12/07 04:14:23;;;;;;;;;56.00;47.00;;;;;;;;5085998;28;8858;-81
2022/12/07 04:16:53;;;;;;;;;47.00;40.33;;;;;;;;5085088;28;8920;-80
2022/12/07 04:19:25;;;;;;;;;48.00;43.67;;;;;;;;5084142;28;8839;-81
2022/12/07 04:21:53;;;;;;;;;54.67;44.67;;;;;;;;5087826;28;8946;-81
2022/12/07 04:24:22;;;;;;;;;44.67;41.33;;;;;;;;5083237;28;8859;-81
2022/12/07 04:26:50;;;;;;;;;48.00;36.67;;;;;;;;5089248;28;8859;-80
2022/12/07 04:29:18;;;;;;;;;37.00;37.00;;;;;;;;5081964;28;8824;-81
2022/12/07 04:31:46;;;;;;;;;49.00;41.67;;;;;;;;5086748;28;8867;-81
2022/12/07 04:34:16;;;;;;;;;44.33;38.00;;;;;;;;5083321;28;9594;-82
2022/12/07 04:36:46;;;;;;;;;45.00;42.00;;;;;;;;5086159;28;8832;-82
2022/12/07 04:39:20;;;;;;;;;49.67;44.67;;;;;;;;5086109;28;8834;-81
2022/12/07 04:41:48;;;;;;;;;47.33;42.33;;;;;;;;5084820;28;8864;-82
2022/12/07 04:44:16;;;;;;;;;53.33;40.33;;;;;;;;5080964;28;8875;-81
2022/12/07 04:46:44;;;;;;;;;47.00;41.33;;;;;;;;5083963;28;8929;-82
2022/12/07 04:49:13;;;;;;;;;48.00;42.00;;;;;;;;5086557;28;8849;-81
2022/12/07 04:51:40;;;;;;;;;49.67;44.67;;;;;;;;5084678;28;8921;-81
2022/12/07 04:54:09;;;;;;;;;55.00;45.33;;;;;;;;5086713;28;8979;-81
2022/12/07 04:56:37;;;;;;;;;42.67;40.33;;;;;;;;5085321;28;9640;-82
2022/12/07 04:59:06;;;;;;;;;52.00;42.00;;;;;;;;5097691;27;8859;-81
2022/12/07 05:01:33;;;;;;;;;40.67;40.67;;;;;;;;5084807;28;8844;-81
2022/12/07 05:04:01;;;;;;;;;47.33;41.00;;;;;;;;5076854;28;8955;-81
2022/12/07 05:06:29;;;;;;;;;47.33;40.33;;;;;;;;5085650;28;8864;-81
2022/12/07 05:08:56;;;;;;;;;46.67;41.00;;;;;;;;5085482;28;8842;-81
2022/12/07 05:11:41;;;;;;;;;50.67;44.67;;;;;;;;5084999;28;8858;-82
2022/12/07 05:14:12;;;;;;;;;49.33;42.67;;;;;;;;5085182;28;8989;-81
2022/12/07 05:16:40;;;;;;;;;43.33;39.00;;;;;;;;5082158;28;8864;-81
2022/12/07 05:19:09;;;;;;;;;36.33;30.67;;;;;;;;5088384;28;8848;-81
2022/12/07 05:21:36;;;;;;;;;49.67;41.33;;;;;;;;5082812;28;8961;-82
2022/12/07 05:24:05;;;;;;;;;40.67;40.67;;;;;;;;5086901;28;8832;-81
2022/12/07 05:26:34;;;;;;;;;47.33;40.33;;;;;;;;5083934;28;8860;-81
2022/12/07 05:29:03;;;;;;;;;35.67;34.00;;;;;;;;5085014;28;8836;-81
2022/12/07 05:31:31;;;;;;;;;47.33;40.33;;;;;;;;5084054;28;8824;-81
2022/12/07 05:33:58;;;;;;;;;37.33;35.67;;;;;;;;5076583;28;8820;-79
2022/12/07 05:36:28;;;;;;;;;39.67;34.33;;;;;;;;5082589;28;8864;-80
2022/12/07 05:38:55;;;;;;;;;41.33;39.00;;;;;;;;5094846;28;8975;-81
2022/12/07 05:44:10;;;;;;;;;47.33;41.00;;;;;;;;5080193;28;12262;-80
2022/12/07 05:46:37;;;;;;;;;39.00;38.00;;;;;;;;5079363;28;9733;-79
2022/12/07 05:49:06;;;;;;;;;39.33;37.33;;;;;;;;5084858;28;8840;-81
2022/12/07 05:51:34;;;;;;;;;42.67;39.00;;;;;;;;5080907;28;8952;-81
2022/12/07 05:54:02;;;;;;;;;48.33;40.67;;;;;;;;5076499;28;8919;-81
2022/12/07 05:56:29;;;;;;;;;51.33;41.00;;;;;;;;5088882;28;8909;-82
2022/12/07 06:01:43;;;;;;;;;20.00;20.00;;;;;;;;5077776;28;9316;-81
2022/12/07 06:04:11;;;;;;;;;50.67;41.33;;;;;;;;5074521;28;8894;-82
2022/12/07 06:06:38;;;;;;;;;37.00;36.00;;;;;;;;5085079;28;8963;-82
2022/12/07 06:09:06;;;;;;;;;48.33;45.00;;;;;;;;5083831;28;8848;-81
2022/12/07 06:14:24;;;;;;;;;45.67;41.00;;;;;;;;5078190;28;8845;-82
2022/12/07 06:16:53;;;;;;;;;43.00;36.00;;;;;;;;5076690;28;8841;-82
2022/12/07 06:19:21;;;;;;;;;46.00;42.00;;;;;;;;5082461;28;11646;-81
2022/12/07 06:21:50;;;;;;;;;53.00;43.67;;;;;;;;5086713;28;8909;-82
2022/12/07 06:24:18;;;;;;;;;49.33;44.00;;;;;;;;5084536;28;8938;-81
2022/12/07 06:26:46;;;;;;;;;49.33;44.33;;;;;;;;5087945;28;8978;-81
2022/12/07 06:29:14;;;;;;;;;36.00;32.67;;;;;;;;5085703;28;8818;-81
2022/12/07 06:31:43;;;;;;;;;48.67;40.00;;;;;;;;5088449;28;11544;-81
2022/12/07 06:34:14;;;;;;;;;53.00;42.67;;;;;;;;5075784;28;11583;-81
2022/12/07 06:36:42;;;;;;;;;43.00;39.33;;;;;;;;5081701;28;11552;-80
2022/12/07 06:39:11;;;;;;;;;35.00;32.67;;;;;;;;5085609;28;12496;-80
2022/12/07 06:41:38;;;;;;;;;49.67;42.33;;;;;;;;5087545;28;11682;-81
2022/12/07 06:44:06;;;;;;;;;44.67;40.00;;;;;;;;5080510;28;11577;-78
2022/12/07 06:46:35;;;;;;;;;45.33;38.33;;;;;;;;5080765;28;11565;-79
2022/12/07 06:49:02;;;;;;;;;46.33;38.33;;;;;;;;5083535;28;11555;-75
2022/12/07 06:51:31;;;;;;;;;30.00;30.00;;;;;;;;5086227;28;11575;-77
2022/12/07 06:53:59;;;;;;;;;44.33;41.00;;;;;;;;5079617;28;11571;-75
2022/12/07 06:56:26;;;;;;;;;58.33;44.00;;;;;;;;5080271;28;12316;-77
2022/12/07 06:58:53;;;;;;;;;43.33;40.00;;;;;;;;5083131;28;11532;-77
2022/12/07 07:01:21;;;;;;;;;47.67;42.00;;;;;;;;5083465;28;8845;-77
2022/12/07 07:03:48;;;;;;;;;42.00;41.33;;;;;;;;5078278;28;8830;-77
2022/12/07 07:06:16;;;;;;;;;43.33;39.33;;;;;;;;5082591;28;11560;-75
2022/12/07 07:08:45;;;;;;;;;48.33;40.33;;;;;;;;5074524;28;9672;-76
2022/12/07 07:11:14;;;;;;;;;44.33;42.33;;;;;;;;5083369;28;8814;-76
2022/12/07 07:13:41;;;;;;;;;42.67;42.00;;;;;;;;5083316;28;8918;-78
2022/12/07 07:16:10;;;;;;;;;47.67;40.00;;;;;;;;5084143;28;8800;-75
2022/12/07 07:18:37;;;;;;;;;37.00;37.00;;;;;;;;5081528;28;11577;-76
2022/12/07 07:21:08;;;;;;;;;45.67;41.67;;;;;;;;5079282;28;11715;-74
2022/12/07 07:23:35;;;;;;;;;44.00;40.33;;;;;;;;5081583;28;12337;-75
2022/12/07 07:26:04;;;;;;;;;59.33;43.67;;;;;;;;5081179;28;11576;-78
2022/12/07 07:28:32;;;;;;;;;53.67;40.67;;;;;;;;5084101;28;9279;-78
2022/12/07 07:31:00;;;;;;;;;38.33;38.33;;;;;;;;5084481;28;11565;-78
2022/12/07 07:33:27;;;;;;;;;50.67;43.00;;;;;;;;5080268;28;11553;-77
2022/12/07 07:35:55;;;;;;;;;44.67;39.00;;;;;;;;5087144;28;8836;-78
2022/12/07 07:38:22;;;;;;;;;40.67;39.33;;;;;;;;5084002;28;11642;-79
2022/12/07 07:40:50;;;;;;;;;38.00;38.00;;;;;;;;5084912;28;11543;-79
2022/12/07 07:43:20;;;;;;;;;40.00;36.00;;;;;;;;5081151;28;11582;-79
2022/12/07 07:45:47;;;;;;;;;48.67;40.00;;;;;;;;5084755;28;11606;-79
2022/12/07 07:48:15;;;;;;;;;36.67;36.33;;;;;;;;5084490;28;11570;-78
2022/12/07 07:50:43;;;;;;;;;30.00;28.67;;;;;;;;5080090;28;11566;-75
2022/12/07 07:53:10;;;;;;;;;37.75;34.50;;;;;;;;5075978;28;11569;-75
2022/12/07 07:55:37;;;;;;;;;45.00;37.33;;;;;;;;5082441;28;11610;-72
2022/12/07 07:58:04;;;;;;;;;38.33;30.67;;;;;;;;5081864;28;11703;-75
2022/12/07 08:00:33;;;;;;;;;54.00;45.00;;;;;;;;5079869;28;11618;-74
2022/12/07 08:03:01;;;;;;;;;45.67;40.00;;;;;;;;5080556;28;11672;-74
2022/12/07 08:05:28;;;;;;;;;51.33;43.67;;;;;;;;5083378;28;11530;-74
2022/12/07 08:07:56;;;;;;;;;43.67;38.00;;;;;;;;5083441;28;8836;-74
2022/12/07 08:10:23;;;;;;;;;52.00;43.67;;;;;;;;5083123;28;11553;-74
2022/12/07 08:15:38;;;;;;;;;53.33;47.00;;;;;;;;5082617;28;10030;-72
2022/12/07 08:18:06;;;;;;;;;45.67;40.67;;;;;;;;5086494;28;8925;-72
2022/12/07 08:20:35;;;;;;;;;56.33;47.00;;;;;;;;5084167;28;11586;-73
2022/12/07 08:23:02;;;;;;;;;59.33;49.00;;;;;;;;5083384;28;8836;-74
2022/12/07 08:25:30;;;;;;;;;46.33;39.33;;;;;;;;5081622;28;8859;-73
2022/12/07 08:27:58;;;;;;;;;49.33;42.33;;;;;;;;5082620;28;8848;-73
2022/12/07 08:30:25;;;;;;;;;52.00;43.33;;;;;;;;5084719;28;9735;-74
2022/12/07 08:32:54;;;;;;;;;60.00;47.67;;;;;;;;5083784;28;8886;-73
2022/12/07 08:35:22;;;;;;;;;54.00;44.67;;;;;;;;5080153;28;8853;-72
2022/12/07 08:37:49;;;;;;;;;60.00;43.33;;;;;;;;5082444;28;9640;-72
2022/12/07 08:40:18;;;;;;;;;48.33;42.67;;;;;;;;5071894;28;8847;-73
2022/12/07 08:42:49;;;;;;;;;54.33;44.67;;;;;;;;5081405;28;8829;-74
2022/12/07 08:45:17;;;;;;;;;53.33;44.00;;;;;;;;5083104;28;8836;-73
2022/12/07 08:47:47;;;;;;;;;51.67;43.33;;;;;;;;5084012;28;8837;-74
2022/12/07 08:50:16;;;;;;;;;45.67;41.67;;;;;;;;5082049;28;8958;-73
2022/12/07 08:52:44;;;;;;;;;52.00;42.67;;;;;;;;5081058;28;11723;-72
2022/12/07 08:55:12;;;;;;;;;37.67;35.67;;;;;;;;5080941;28;11710;-72
2022/12/07 08:57:41;;;;;;;;;39.25;37.75;;;;;;;;5083708;28;11627;-73
2022/12/07 09:00:10;;;;;;;;;51.25;45.75;;;;;;;;5082339;28;11529;-72
2022/12/07 09:02:44;;;;;;;;;51.75;44.50;;;;;;;;5079766;28;11704;-73
2022/12/07 09:05:14;;;;;;;;;42.25;40.75;;;;;;;;5082659;28;11572;-73
2022/12/07 09:07:44;;;;;;;;;45.75;41.50;;;;;;;;5083532;28;11571;-74
2022/12/07 09:10:13;;;;;;;;;50.25;42.00;;;;;;;;5082287;28;11716;-71
2022/12/07 09:12:40;;;;;;;;;55.50;44.25;;;;;;;;5075476;28;11711;-72
2022/12/07 09:15:09;;;;;;;;;48.75;43.25;;;;;;;;5081204;28;12310;-72
2022/12/07 09:17:37;;;;;;;;;45.25;42.00;;;;;;;;5082801;28;11581;-73
2022/12/07 09:20:07;;;;;;;;;59.50;43.50;;;;;;;;5081532;28;12373;-73
2022/12/07 09:22:35;;;;;;;;;45.00;39.75;;;;;;;;5078307;28;11603;-72
2022/12/07 09:25:05;;;;;;;;;43.00;39.75;;;;;;;;5078049;28;11591;-72
2022/12/07 09:27:32;;;;;;;;;54.00;42.25;;;;;;;;5080017;28;11572;-72
2022/12/07 09:30:00;;;;;;;;;47.75;40.00;;;;;;;;5079445;28;11583;-71
2022/12/07 09:32:27;;;;;;;;;35.00;35.00;;;;;;;;5076634;28;12466;-71
2022/12/07 09:35:03;;;;;;;;;56.75;44.00;;;;;;;;5081453;28;11633;-74
2022/12/07 09:37:37;;;;;;;;;44.25;40.75;;;;;;;;5080767;28;11584;-72
2022/12/07 09:40:16;;;;;;;;;43.25;39.00;;;;;;;;5082335;28;11594;-72
2022/12/07 09:42:48;;;;;;;;;42.50;39.75;;;;;;;;5080990;28;11566;-72
2022/12/07 09:45:18;;;;;;;;;42.25;40.25;;;;;;;;5080303;28;11555;-73
2022/12/07 09:47:46;;;;;;;;;48.25;39.50;;;;;;;;5078092;28;11671;-73
2022/12/07 09:50:15;;;;;;;;;45.00;40.75;;;;;;;;5079388;28;12367;-74
2022/12/07 09:52:45;;;;;;;;;40.00;38.00;;;;;;;;5079113;28;11581;-73
2022/12/07 09:55:16;;;;;;;;;35.50;32.75;;;;;;;;5080967;28;11562;-72
2022/12/07 09:57:44;;;;;;;;;48.75;41.75;;;;;;;;5080380;28;11727;-72
2022/12/07 10:00:16;;;;;;;;;53.50;43.75;;;;;;;;5076442;28;11549;-73
2022/12/07 10:02:45;;;;;;;;;44.75;40.25;;;;;;;;5074512;28;11571;-74
2022/12/07 10:05:16;;;;;;;;;45.75;41.25;;;;;;;;5080407;28;11527;-73
2022/12/07 10:07:43;;;;;;;;;55.00;45.75;;;;;;;;5080405;28;11719;-74
2022/12/07 10:10:18;;;;;;;;;36.75;33.75;;;;;;;;5079283;28;11536;-73
2022/12/07 10:12:59;;;;;;;;;38.75;34.00;;;;;;;;5081680;28;11720;-73
2022/12/07 10:15:46;;;;;;;;;34.25;33.75;;;;;;;;5080884;28;11568;-74
2022/12/07 10:18:35;;;;;;;;;40.00;38.25;;;;;;;;5081198;28;11556;-72
2022/12/07 10:21:23;;;;;;;;;36.25;31.00;;;;;;;;5077063;28;11623;-72
2022/12/07 10:24:02;;;;;;;;;48.25;39.75;;;;;;;;5080168;28;11561;-74
2022/12/07 10:26:35;;;;;;;;;43.75;39.75;;;;;;;;5073328;28;11710;-73
2022/12/07 10:29:13;;;;;;;;;38.50;36.50;;;;;;;;5079827;28;11606;-75
2022/12/07 10:31:42;;;;;;;;;51.75;40.00;;;;;;;;5081340;28;11604;-73
2022/12/07 10:34:24;;;;;;;;;43.25;39.00;;;;;;;;5080461;28;11582;-72
2022/12/07 10:36:51;;;;;;;;;39.50;32.75;;;;;;;;5079279;28;11652;-74
2022/12/07 10:39:21;;;;;;;;;34.25;31.00;;;;;;;;5076476;28;11563;-75
2022/12/07 10:41:57;;;;;;;;;38.75;32.25;;;;;;;;5071900;28;11591;-74
2022/12/07 10:44:26;;;;;;;;;36.25;34.50;;;;;;;;5079693;28;11552;-74
2022/12/07 10:47:03;;;;;;;;;44.00;37.25;;;;;;;;5080342;28;11697;-75
2022/12/07 10:49:54;;;;;;;;;42.00;37.25;;;;;;;;5077536;28;12066;-75
2022/12/07 10:52:32;;;;;;;;;43.00;34.50;;;;;;;;5074025;28;11591;-77
2022/12/07 10:55:12;;;;;;;;;37.50;32.25;;;;;;;;5083298;28;11566;-74
2022/12/07 11:01:08;;;;;;;;;37.25;32.50;;;;;;;;5100039;27;13561;-74
2022/12/07 11:03:47;;;;;;;;;40.00;34.25;;;;;;;;5056163;27;11648;-76
2022/12/07 11:06:22;;;;;;;;;35.75;35.75;;;;;;;;5052381;27;11728;-77
2022/12/07 11:09:04;;;;;;;;;25.50;25.50;;;;;;;;5073004;27;11533;-75
2022/12/07 11:11:35;;;;;;;;;10.50;8.25;;;;;;;;5069587;27;11683;-75
2022/12/07 11:14:07;;;;;;;;;35.25;31.25;;;;;;;;5080611;27;11504;-74
2022/12/07 11:19:41;;;;;;;;;29.75;29.75;;;;;;;;5035226;28;13566;-74
2022/12/07 11:22:16;;;;;;;;;33.25;31.00;;;;;;;;5051945;28;11436;-76
2022/12/07 11:24:51;;;;;;;;;19.75;14.25;;;;;;;;5077097;28;11463;-75
2022/12/07 11:27:25;;;;;;;;;21.00;17.75;;;;;;;;5068906;28;11502;-77
2022/12/07 11:30:18;;;;;;;;;17.25;13.50;;;;;;;;5052259;28;11624;-76
2022/12/07 11:32:54;;;;;;;;;14.50;14.50;;;;;;;;5060888;27;11472;-76
2022/12/07 11:35:36;;;;;;;;;17.00;15.00;;;;;;;;5026314;28;11509;-75
2022/12/07 11:38:10;;;;;;;;;14.25;14.25;;;;;;;;5034965;28;11454;-76
2022/12/07 11:40:39;;;;;;;;;17.00;16.25;;;;;;;;5036672;28;11589;-75
2022/12/07 11:43:14;;;;;;;;;17.00;17.00;;;;;;;;5043880;27;12152;-77
2022/12/07 11:45:44;;;;;;;;;17.50;17.50;;;;;;;;5036146;28;11483;-76
2022/12/07 11:48:17;;;;;;;;;16.00;16.00;;;;;;;;5061657;27;11485;-75
2022/12/07 11:50:50;;;;;;;;;22.00;17.75;;;;;;;;5048831;28;12219;-80
2022/12/07 11:53:26;;;;;;;;;17.50;14.75;;;;;;;;5057436;27;11451;-79
2022/12/07 11:55:59;;;;;;;;;12.00;10.25;;;;;;;;5042559;28;11465;-76
2022/12/07 11:58:52;;;;;;;;;19.25;17.00;;;;;;;;5055903;27;11453;-74
2022/12/07 12:01:37;;;;;;;;;17.75;16.50;;;;;;;;5049962;28;12284;-77
2022/12/07 12:04:13;;;;;;;;;17.75;14.75;;;;;;;;5036332;28;11499;-77
2022/12/07 12:06:44;;;;;;;;;21.25;18.50;;;;;;;;5038837;28;11496;-78
2022/12/07 12:09:15;;;;;;;;;17.25;15.75;;;;;;;;5019052;28;11509;-76
2022/12/07 12:12:12;;;;;;;;;16.00;15.50;;;;;;;;5050189;27;12337;-79
2022/12/07 12:14:49;;;;;;;;;17.00;17.00;;;;;;;;5041157;28;11619;-76
2022/12/07 12:17:45;;;;;;;;;22.00;19.25;;;;;;;;5040914;28;11480;-78
2022/12/07 12:20:20;;;;;;;;;20.25;14.50;;;;;;;;5044325;27;11463;-78
2022/12/07 12:22:54;;;;;;;;;17.50;17.00;;;;;;;;5034473;28;11423;-78
2022/12/07 12:25:24;;;;;;;;;17.75;14.00;;;;;;;;5049958;27;11538;-79
2022/12/07 12:27:52;;;;;;;;;18.75;17.00;;;;;;;;5015758;28;11530;-80
2022/12/07 12:30:35;;;;;;;;;19.75;16.00;;;;;;;;5037587;28;11452;-78
2022/12/07 12:33:06;;;;;;;;;17.50;15.00;;;;;;;;5036746;28;11497;-79
2022/12/07 12:35:35;;;;;;;;;17.75;14.50;;;;;;;;5050378;28;11519;-78
2022/12/07 12:38:29;;;;;;;;;17.25;16.50;;;;;;;;5024046;28;11431;-78
2022/12/07 12:41:01;;;;;;;;;27.50;25.00;;;;;;;;5035395;28;11427;-78
2022/12/07 12:43:52;;;;;;;;;50.50;39.25;;;;;;;;5044573;28;11481;-76
2022/12/07 12:46:48;;;;;;;;;28.25;24.00;;;;;;;;5034440;28;11558;-77
2022/12/07 12:49:38;;;;;;;;;18.00;18.00;;;;;;;;5029116;28;11516;-77
2022/12/07 12:52:50;;;;;;;;;26.25;24.00;;;;;;;;5024334;28;11469;-76
2022/12/07 12:55:21;;;;;;;;;24.50;23.75;;;;;;;;5019785;28;11739;-75
2022/12/07 12:58:04;;;;;;;;;20.25;19.50;;;;;;;;5037771;28;11508;-75
2022/12/07 13:00:33;;;;;;;;;17.50;17.25;;;;;;;;5013644;28;11583;-77
2022/12/07 13:03:01;;;;;;;;;27.50;24.25;;;;;;;;4987948;28;12248;-75
2022/12/07 13:05:29;;;;;;;;;29.00;26.25;;;;;;;;5035174;28;12328;-76
2022/12/07 13:08:02;;;;;;;;;30.75;27.25;;;;;;;;5022128;28;11570;-75
2022/12/07 13:10:46;;;;;;;;;33.25;33.00;;;;;;;;4982864;28;11415;-75
2022/12/07 13:13:36;;;;;;;;;19.75;18.50;;;;;;;;5020559;28;11561;-76
2022/12/07 13:16:39;;;;;;;;;41.50;38.00;;;;;;;;5017484;28;11508;-75
2022/12/07 13:19:40;;;;;;;;;25.00;25.00;;;;;;;;5021187;28;11654;-75
2022/12/07 13:22:52;;;;;;;;;24.00;23.25;;;;;;;;5039064;28;11592;-76
2022/12/07 13:25:26;;;;;;;;;29.00;23.75;;;;;;;;5023277;28;11592;-75
2022/12/07 13:27:58;;;;;;;;;23.75;21.00;;;;;;;;5040927;28;11501;-75
2022/12/07 13:30:26;;;;;;;;;13.50;13.00;;;;;;;;5038317;28;11488;-75
2022/12/07 13:32:56;;;;;;;;;19.75;18.25;;;;;;;;5036604;28;11481;-75
2022/12/07 13:35:35;;;;;;;;;25.25;23.00;;;;;;;;5023264;28;11608;-75
2022/12/07 13:38:18;;;;;;;;;18.50;15.50;;;;;;;;5037259;28;11759;-75
2022/12/07 13:41:15;;;;;;;;;22.75;20.00;;;;;;;;5021741;28;11481;-75
2022/12/07 13:43:51;;;;;;;;;12.25;12.25;;;;;;;;5012317;28;11540;-75
2022/12/07 13:46:20;;;;;;;;;20.00;17.25;;;;;;;;5021565;28;11496;-75
2022/12/07 13:48:49;;;;;;;;;21.25;18.50;;;;;;;;5019796;28;11586;-75
2022/12/07 13:51:23;;;;;;;;;34.75;30.00;;;;;;;;5016328;28;11448;-75
2022/12/07 13:53:54;;;;;;;;;16.50;13.25;;;;;;;;5026043;28;12373;-74
2022/12/07 13:56:23;;;;;;;;;17.50;17.50;;;;;;;;5014926;28;11433;-75
2022/12/07 13:58:53;;;;;;;;;22.50;22.50;;;;;;;;5036511;28;11583;-75
2022/12/07 14:01:22;;;;;;;;;18.50;18.00;;;;;;;;5000757;28;11457;-74
2022/12/07 14:03:49;;;;;;;;;15.75;15.75;;;;;;;;5046385;28;11456;-75
2022/12/07 14:06:21;;;;;;;;;31.00;24.75;;;;;;;;5039681;28;11450;-75
2022/12/07 14:08:49;;;;;;;;;22.50;20.25;;;;;;;;5035510;28;11442;-76
2022/12/07 14:11:19;;;;;;;;;14.50;13.25;;;;;;;;5059165;28;11605;-76
2022/12/07 14:14:01;;;;;;;;;25.75;24.00;;;;;;;;5020965;28;11442;-76
2022/12/07 14:16:30;;;;;;;;;16.75;14.50;;;;;;;;5016989;28;11657;-75
2022/12/07 14:18:59;;;;;;;;;31.25;27.00;;;;;;;;5025184;28;12828;-75
2022/12/07 14:21:30;;;;;;;;;41.00;35.75;;;;;;;;5036190;28;12371;-76
2022/12/07 14:24:18;;;;;;;;;24.25;18.25;;;;;;;;5046119;28;11555;-75
2022/12/07 14:26:47;;;;;;;;;21.25;21.25;;;;;;;;5025875;28;11478;-75
2022/12/07 14:29:36;;;;;;;;;42.75;39.00;;;;;;;;5045289;28;12239;-74
2022/12/07 14:32:27;;;;;;;;;25.25;22.25;;;;;;;;5014513;28;11631;-74
2022/12/07 14:34:57;;;;;;;;;23.50;22.00;;;;;;;;5046256;28;11489;-75
2022/12/07 14:37:26;;;;;;;;;15.00;15.00;;;;;;;;5030740;28;11737;-78
2022/12/07 14:39:54;;;;;;;;;19.00;19.00;;;;;;;;5040183;28;11483;-75
2022/12/07 14:42:32;;;;;;;;;;;;;;;;;;;;;
2022/12/07 14:45:02;;;;;;;;;50.25;40.50;;;;;;;;5033222;28;11533;-75
2022/12/07 14:47:37;;;;;;;;;37.00;36.25;;;;;;;;5023915;28;11517;-75
2022/12/07 14:50:06;;;;;;;;;18.75;14.75;;;;;;;;5019236;28;12344;-74
2022/12/07 14:52:36;;;;;;;;;20.25;15.00;;;;;;;;5060681;28;11468;-74
2022/12/07 14:55:04;;;;;;;;;23.00;22.00;;;;;;;;5003262;28;11478;-74
2022/12/07 14:57:31;;;;;;;;;17.00;17.00;;;;;;;;5007071;28;11639;-75
2022/12/07 14:59:59;;;;;;;;;18.75;17.00;;;;;;;;5016468;28;11507;-76
2022/12/07 15:02:28;;;;;;;;;17.25;17.25;;;;;;;;5034738;28;12306;-76
2022/12/07 15:04:56;;;;;;;;;23.50;19.00;;;;;;;;5016562;28;12361;-77
2022/12/07 15:07:23;;;;;;;;;28.50;27.00;;;;;;;;5001395;28;11486;-75